createdAt,value
2019-04-26T16:32:35.162Z,24.90
2019-04-26T16:35:04.812Z,24.50
2019-04-26T16:40:03.667Z,23.60
2019-04-26T16:42:32.779Z,23.40
2019-04-26T16:45:04.694Z,23.20
2019-04-26T16:47:35.306Z,22.90
2019-04-26T16:50:03.759Z,22.70
2019-04-26T16:52:33.710Z,22.50
2019-04-26T16:55:04.322Z,22.20
2019-04-26T16:57:44.006Z,21.90
2019-04-26T17:00:06.433Z,21.70
2019-04-26T17:02:37.045Z,21.40
2019-04-26T17:05:17.637Z,21.20
2019-04-26T17:07:39.379Z,20.90
2019-04-26T17:10:07.869Z,20.70
2019-04-26T17:12:38.247Z,20.60
2019-04-26T17:15:10.446Z,20.50
2019-04-26T17:17:41.274Z,20.40
2019-04-26T17:20:11.142Z,20.30
2019-04-26T17:23:01.008Z,20.20
2019-04-26T17:25:36.958Z,20.10
2019-04-26T17:28:06.061Z,20.00
2019-04-26T17:30:41.376Z,19.90
2019-04-26T17:33:05.857Z,19.80
2019-04-26T17:35:36.725Z,19.80
2019-04-26T17:38:05.596Z,19.70
2019-04-26T17:40:36.679Z,19.60
2019-04-26T17:43:09.496Z,19.60
2019-04-26T17:45:36.272Z,19.50
2019-04-26T17:48:11.698Z,19.40
2019-04-26T17:50:39.091Z,19.20
2019-04-26T17:53:10.656Z,19.20
2019-04-26T17:55:39.208Z,19.10
2019-04-26T17:58:12.441Z,19.00
2019-04-26T18:00:46.031Z,18.90
2019-04-26T18:03:11.644Z,18.80
2019-04-26T18:05:55.877Z,18.80
2019-04-26T18:08:33.628Z,18.70
2019-04-26T18:10:42.910Z,18.70
2019-04-26T18:13:16.435Z,18.60
2019-04-26T18:15:46.812Z,18.60
2019-04-26T18:18:34.161Z,18.60
2019-04-26T18:21:20.921Z,18.60
2019-04-26T18:23:54.674Z,18.50
2019-04-26T18:26:22.425Z,18.50
2019-04-26T18:28:54.975Z,18.40
2019-04-26T18:31:28.934Z,18.40
2019-04-26T18:33:54.816Z,18.40
2019-04-26T18:36:27.704Z,18.30
2019-04-26T18:38:55.354Z,18.30
2019-04-26T18:41:28.728Z,18.20
2019-04-26T18:43:59.716Z,18.20
2019-04-26T18:46:35.708Z,18.10
2019-04-26T18:49:04.514Z,18.10
2019-04-26T18:51:33.982Z,18.00
2019-04-26T18:54:17.800Z,18.00
2019-04-26T18:56:51.335Z,17.90
2019-04-26T18:59:20.650Z,17.90
2019-04-26T19:02:35.017Z,17.80
2019-04-26T19:05:04.807Z,17.80
2019-04-26T19:09:58.781Z,17.70
2019-04-26T19:12:26.828Z,17.70
2019-04-26T19:17:45.148Z,17.70
2019-04-26T19:20:22.806Z,17.70
2019-04-26T19:22:57.283Z,17.60
2019-04-26T19:25:29.707Z,17.70
2019-04-26T19:27:58.655Z,17.60
2019-04-26T19:30:30.037Z,17.50
2019-04-26T19:32:59.313Z,17.50
2019-04-26T19:35:28.602Z,17.60
2019-04-26T19:37:58.192Z,17.50
2019-04-26T19:40:27.932Z,17.50
2019-04-26T19:43:54.145Z,17.50
2019-04-26T19:46:43.805Z,17.50
2019-04-26T19:49:33.351Z,17.50
2019-04-26T19:52:14.914Z,17.40
2019-04-26T19:54:50.412Z,17.40
2019-04-26T19:57:59.163Z,17.30
2019-04-26T20:00:28.555Z,17.30
2019-04-26T20:02:57.791Z,17.30
2019-04-26T20:05:27.326Z,17.20
2019-04-26T20:07:58.488Z,17.20
2019-04-26T20:10:28.698Z,17.10
2019-04-26T20:12:58.030Z,17.10
2019-04-26T20:15:28.672Z,17.00
2019-04-26T20:18:00.299Z,17.00
2019-04-26T20:20:32.817Z,16.90
2019-04-26T20:23:04.134Z,16.80
2019-04-26T20:25:31.104Z,16.70
2019-04-26T20:28:01.507Z,16.70
2019-04-26T20:30:41.807Z,16.60
2019-04-26T20:33:12.137Z,16.60
2019-04-26T20:35:42.435Z,16.60
2019-04-26T20:38:11.966Z,16.50
2019-04-26T20:40:43.378Z,16.40
2019-04-26T20:43:23.225Z,16.40
2019-04-26T20:46:08.028Z,16.30
2019-04-26T20:48:14.348Z,16.30
2019-04-26T20:50:43.569Z,16.30
2019-04-26T20:53:12.748Z,16.20
2019-04-26T20:55:42.743Z,16.20
2019-04-26T20:58:12.141Z,16.10
2019-04-26T21:00:53.809Z,16.10
2019-04-26T21:03:22.726Z,16.00
2019-04-26T21:05:46.493Z,16.00
2019-04-26T21:08:14.355Z,16.00
2019-04-26T21:10:44.375Z,16.00
2019-04-26T21:13:13.801Z,15.90
2019-04-26T21:15:56.106Z,15.90
2019-04-26T21:18:14.235Z,15.90
2019-04-26T21:20:43.499Z,15.80
2019-04-26T21:23:13.198Z,15.80
2019-04-26T21:26:07.057Z,15.80
2019-04-26T21:28:54.257Z,15.70
2019-04-26T21:31:45.476Z,15.70
2019-04-26T21:34:19.221Z,15.60
2019-04-26T21:37:03.302Z,15.60
2019-04-26T21:39:49.795Z,15.60
2019-04-26T21:42:21.042Z,15.50
2019-04-26T21:44:52.420Z,15.50
2019-04-26T21:47:21.030Z,15.40
2019-04-26T21:49:54.018Z,15.40
2019-04-26T21:52:25.226Z,15.40
2019-04-26T21:54:53.134Z,15.30
2019-04-26T21:57:27.886Z,15.30
2019-04-26T21:59:54.244Z,15.30
2019-04-26T22:02:37.476Z,15.30
2019-04-26T22:05:08.163Z,15.20
2019-04-26T22:07:39.409Z,15.20
2019-04-26T22:10:15.147Z,15.20
2019-04-26T22:12:45.113Z,15.20
2019-04-26T22:15:37.605Z,15.10
2019-04-26T22:18:16.487Z,15.10
2019-04-26T22:20:52.230Z,15.00
2019-04-26T22:23:29.578Z,15.00
2019-04-26T22:26:00.102Z,14.90
2019-04-26T22:28:31.225Z,14.90
2019-04-26T22:31:06.922Z,14.90
2019-04-26T22:33:34.109Z,14.80
2019-04-26T22:36:04.053Z,14.80
2019-04-26T22:38:33.958Z,14.70
2019-04-26T22:41:03.457Z,14.70
2019-04-26T22:43:39.328Z,14.60
2019-04-26T22:46:26.396Z,14.60
2019-04-26T22:48:54.632Z,14.60
2019-04-26T22:51:20.677Z,14.60
2019-04-26T22:53:50.025Z,14.50
2019-04-26T22:56:19.277Z,14.50
2019-04-26T22:58:48.677Z,14.50
2019-04-26T23:01:18.024Z,14.50
2019-04-26T23:03:47.326Z,14.40
2019-04-26T23:06:16.865Z,14.40
2019-04-26T23:08:46.225Z,14.40
2019-04-26T23:11:15.513Z,14.30
2019-04-26T23:14:03.435Z,14.30
2019-04-26T23:16:44.708Z,14.30
2019-04-26T23:19:33.582Z,14.30
2019-04-26T23:22:03.987Z,14.20
2019-04-26T23:24:33.452Z,14.20
2019-04-26T23:27:03.931Z,14.20
2019-04-26T23:29:33.684Z,14.10
2019-04-26T23:32:03.632Z,14.10
2019-04-26T23:34:33.672Z,14.10
2019-04-26T23:37:03.553Z,14.10
2019-04-26T23:39:32.858Z,14.10
2019-04-26T23:42:03.768Z,14.00
2019-04-26T23:44:36.854Z,14.00
2019-04-26T23:47:18.187Z,14.00
2019-04-26T23:49:35.144Z,14.00
2019-04-26T23:52:04.427Z,13.90
2019-04-26T23:54:35.904Z,13.90
2019-04-26T23:57:04.735Z,13.90
2019-04-26T23:59:34.034Z,13.90
